createdAt,value
2023-09-08T00:02:33.391Z,100493.28
2023-09-08T00:05:00.047Z,100509.75
2023-09-08T00:07:26.915Z,100523.69
2023-09-08T00:09:53.895Z,100518.94
2023-09-08T00:12:20.579Z,100525.41
2023-09-08T00:14:47.380Z,100521.03
2023-09-08T00:17:14.010Z,100510.16
2023-09-08T00:19:40.729Z,100497.69
2023-09-08T00:22:08.239Z,100486.97
2023-09-08T00:24:35.319Z,100487.44
2023-09-08T00:27:02.320Z,100497.00
2023-09-08T00:29:29.390Z,100492.47
2023-09-08T00:31:56.222Z,100498.50
2023-09-08T00:34:22.921Z,100509.53
2023-09-08T00:36:49.858Z,100512.03
2023-09-08T00:39:16.530Z,100514.78
2023-09-08T00:41:43.149Z,100513.13
2023-09-08T00:44:10.225Z,100507.38
2023-09-08T00:46:37.223Z,100502.00
2023-09-08T00:49:04.218Z,100496.22
2023-09-08T00:51:30.803Z,100498.56
2023-09-08T00:53:57.663Z,100494.03
2023-09-08T00:56:24.819Z,100493.19
2023-09-08T00:58:51.575Z,100503.38
2023-09-08T01:01:18.782Z,100494.28
2023-09-08T01:03:45.564Z,100501.19
2023-09-08T01:06:12.768Z,100499.31
2023-09-08T01:08:40.318Z,100480.63
2023-09-08T01:11:07.945Z,100471.50
2023-09-08T01:13:34.535Z,100473.59
2023-09-08T01:16:02.434Z,100485.69
2023-09-08T01:18:29.240Z,100490.69
2023-09-08T01:21:25.492Z,100477.38
2023-09-08T01:24:11.192Z,100477.97
2023-09-08T01:26:41.783Z,100465.69
2023-09-08T01:29:10.442Z,100472.56
2023-09-08T01:31:39.041Z,100466.44
2023-09-08T01:34:08.121Z,100457.66
2023-09-08T01:36:35.352Z,100448.13
2023-09-08T01:39:05.281Z,100459.16
2023-09-08T01:41:33.604Z,100457.81
2023-09-08T01:44:00.715Z,100465.94
2023-09-08T01:46:27.442Z,100460.09
2023-09-08T01:48:54.045Z,100462.16
2023-09-08T01:51:20.755Z,100462.97
2023-09-08T01:53:47.322Z,100475.00
2023-09-08T01:56:13.950Z,100468.72
2023-09-08T01:58:40.686Z,100462.03
2023-09-08T02:01:07.446Z,100454.72
2023-09-08T02:03:35.704Z,100450.75
2023-09-08T02:06:02.465Z,100440.78
2023-09-08T02:08:29.189Z,100435.38
2023-09-08T02:10:55.793Z,100443.50
2023-09-08T02:13:23.137Z,100444.97
2023-09-08T02:15:49.966Z,100439.34
2023-09-08T02:18:16.748Z,100435.03
2023-09-08T02:20:43.532Z,100441.25
2023-09-08T02:23:10.263Z,100440.56
2023-09-08T02:25:36.936Z,100443.09
2023-09-08T02:28:04.746Z,100435.38
2023-09-08T02:30:31.760Z,100431.88
2023-09-08T02:33:00.347Z,100424.16
2023-09-08T02:35:27.112Z,100414.59
2023-09-08T02:37:56.004Z,100411.25
2023-09-08T02:40:22.663Z,100403.31
2023-09-08T02:42:50.377Z,100409.19
2023-09-08T02:45:17.388Z,100401.84
2023-09-08T02:47:44.194Z,100400.66
2023-09-08T02:50:10.981Z,100399.41
2023-09-08T02:52:37.881Z,100399.19
2023-09-08T02:55:05.152Z,100394.22
2023-09-08T02:57:31.802Z,100391.69
2023-09-08T02:59:58.588Z,100388.78
2023-09-08T03:02:26.219Z,100394.59
2023-09-08T03:04:53.290Z,100391.03
2023-09-08T03:07:20.177Z,100392.47
2023-09-08T03:09:46.963Z,100400.78
2023-09-08T03:12:13.672Z,100402.66
2023-09-08T03:14:40.537Z,100396.00
2023-09-08T03:17:07.571Z,100397.25
2023-09-08T03:19:34.604Z,100396.00
2023-09-08T03:22:01.420Z,100395.56
2023-09-08T03:24:28.106Z,100386.59
2023-09-08T03:26:55.415Z,100400.56
2023-09-08T03:29:22.665Z,100398.91
2023-09-08T03:31:49.522Z,100404.53
2023-09-08T03:34:17.068Z,100398.25
2023-09-08T03:36:44.726Z,100407.06
2023-09-08T03:39:11.674Z,100395.41
2023-09-08T03:41:38.564Z,100403.94
2023-09-08T03:44:05.401Z,100411.38
2023-09-08T03:46:32.096Z,100408.56
2023-09-08T03:49:01.972Z,100424.38
2023-09-08T03:51:29.191Z,100420.00
2023-09-08T03:53:55.940Z,100423.75
2023-09-08T03:56:22.773Z,100421.50
2023-09-08T03:58:50.016Z,100417.94
2023-09-08T04:01:16.847Z,100416.66
2023-09-08T04:03:45.031Z,100397.59
2023-09-08T04:06:12.517Z,100382.44
2023-09-08T04:08:39.235Z,100376.41
2023-09-08T04:11:06.310Z,100372.84
2023-09-08T04:13:33.543Z,100361.78
2023-09-08T04:16:00.649Z,100357.38
2023-09-08T04:18:27.584Z,100354.22
2023-09-08T04:20:54.393Z,100347.78
2023-09-08T04:23:21.085Z,100351.44
2023-09-08T04:25:47.777Z,100342.41
2023-09-08T04:28:14.434Z,100331.69
2023-09-08T04:30:41.356Z,100332.88
2023-09-08T04:33:08.244Z,100319.38
2023-09-08T04:35:35.155Z,100318.53
2023-09-08T04:38:04.555Z,100328.09
2023-09-08T04:40:31.548Z,100322.66
2023-09-08T04:42:58.182Z,100322.44
2023-09-08T04:45:24.970Z,100320.56
2023-09-08T04:47:52.030Z,100324.34
2023-09-08T04:50:20.250Z,100324.31
2023-09-08T04:52:47.084Z,100322.63
2023-09-08T04:55:14.018Z,100330.59
2023-09-08T04:57:40.816Z,100333.75
2023-09-08T05:00:08.905Z,100337.72
2023-09-08T05:02:35.818Z,100337.75
2023-09-08T05:05:03.696Z,100336.06
2023-09-08T05:07:31.424Z,100336.34
2023-09-08T05:09:58.534Z,100334.44
2023-09-08T05:12:29.133Z,100338.59
2023-09-08T05:15:01.072Z,100343.22
2023-09-08T05:17:28.169Z,100335.31
2023-09-08T05:19:54.954Z,100330.78
2023-09-08T05:22:22.068Z,100327.03
2023-09-08T05:24:49.630Z,100324.53
2023-09-08T05:27:16.482Z,100318.75
2023-09-08T05:29:43.205Z,100322.06
2023-09-08T05:32:10.267Z,100327.94
2023-09-08T05:34:38.684Z,100327.06
2023-09-08T05:37:05.988Z,100326.06
2023-09-08T05:39:33.667Z,100320.03
2023-09-08T05:42:00.843Z,100324.81
2023-09-08T05:44:27.593Z,100336.59
2023-09-08T05:46:55.349Z,100342.50
2023-09-08T05:49:23.636Z,100327.31
2023-09-08T05:51:50.778Z,100330.44
2023-09-08T05:54:17.860Z,100339.38
2023-09-08T05:56:45.148Z,100333.72
2023-09-08T05:59:12.616Z,100329.00
2023-09-08T06:01:40.146Z,100332.16
2023-09-08T06:04:09.203Z,100330.06
2023-09-08T06:06:36.187Z,100330.09
2023-09-08T06:09:02.933Z,100327.59
2023-09-08T06:11:29.779Z,100330.28
2023-09-08T06:14:00.350Z,100332.19
2023-09-08T06:16:30.419Z,100334.47
2023-09-08T06:18:57.277Z,100339.75
2023-09-08T06:21:24.336Z,100338.34
2023-09-08T06:23:51.241Z,100335.00
2023-09-08T06:26:18.807Z,100345.47
2023-09-08T06:28:46.741Z,100369.84
2023-09-08T06:31:13.431Z,100396.13
2023-09-08T06:33:42.097Z,100416.72
2023-09-08T06:36:08.808Z,100437.41
2023-09-08T06:38:36.238Z,100450.44
2023-09-08T06:41:09.666Z,100461.41
2023-09-08T06:43:36.397Z,100465.94
2023-09-08T06:46:08.782Z,100481.97
2023-09-08T06:48:36.701Z,100495.28
2023-09-08T06:51:03.854Z,100494.56
2023-09-08T06:53:32.120Z,100499.50
2023-09-08T06:55:59.100Z,100516.00
2023-09-08T06:58:25.952Z,100520.88
2023-09-08T07:00:55.583Z,100521.41
2023-09-08T07:03:24.127Z,100522.19
2023-09-08T07:05:51.921Z,100518.31
2023-09-08T07:08:19.340Z,100520.25
2023-09-08T07:10:46.519Z,100510.25
2023-09-08T07:13:13.384Z,100519.91
2023-09-08T07:15:40.729Z,100514.25
2023-09-08T07:18:07.484Z,100518.38
2023-09-08T07:20:34.129Z,100520.75
2023-09-08T07:23:02.357Z,100526.72
2023-09-08T07:25:29.192Z,100516.56
2023-09-08T07:27:56.074Z,100524.56
2023-09-08T07:30:23.506Z,100530.06
2023-09-08T07:32:50.486Z,100536.84
2023-09-08T07:35:18.129Z,100532.97
2023-09-08T07:37:46.320Z,100543.34
2023-09-08T07:40:13.606Z,100541.06
2023-09-08T07:42:40.887Z,100536.44
2023-09-08T07:45:08.221Z,100540.34
2023-09-08T07:47:34.860Z,100538.94
2023-09-08T07:50:21.274Z,100548.78
2023-09-08T07:52:48.491Z,100540.94
2023-09-08T07:55:15.671Z,100533.22
2023-09-08T07:57:47.191Z,100532.44
2023-09-08T08:00:14.235Z,100533.63
2023-09-08T08:02:43.119Z,100536.91
2023-09-08T08:05:10.349Z,100541.13
2023-09-08T08:07:37.120Z,100541.56
2023-09-08T08:10:04.268Z,100537.28
2023-09-08T08:12:30.948Z,100543.16
2023-09-08T08:14:57.672Z,100530.09
2023-09-08T08:17:24.396Z,100528.50
2023-09-08T08:19:51.136Z,100526.41
2023-09-08T08:22:17.847Z,100523.72
2023-09-08T08:24:45.041Z,100526.47
2023-09-08T08:27:11.718Z,100527.00
2023-09-08T08:29:38.362Z,100531.31
2023-09-08T08:32:05.070Z,100522.81
2023-09-08T08:34:31.867Z,100521.69
2023-09-08T08:36:58.514Z,100525.13
2023-09-08T08:39:25.149Z,100520.59
2023-09-08T08:41:51.799Z,100524.81
2023-09-08T08:44:19.436Z,100521.25
2023-09-08T08:46:47.605Z,100525.94
2023-09-08T08:49:16.078Z,100526.59
2023-09-08T08:51:45.149Z,100516.75
2023-09-08T08:54:13.791Z,100533.81
2023-09-08T08:56:40.746Z,100528.91
2023-09-08T08:59:07.688Z,100527.97
2023-09-08T09:01:34.710Z,100533.81
2023-09-08T09:04:01.619Z,100533.97
2023-09-08T09:06:29.061Z,100543.44
2023-09-08T09:08:55.671Z,100538.63
2023-09-08T09:11:22.329Z,100532.50
2023-09-08T09:13:48.922Z,100533.66
2023-09-08T09:16:15.636Z,100542.78
2023-09-08T09:18:56.028Z,100545.41
2023-09-08T09:21:22.803Z,100532.81
2023-09-08T09:23:49.450Z,100531.28
2023-09-08T09:26:26.285Z,100535.63
2023-09-08T09:28:54.981Z,100535.84
2023-09-08T09:31:28.000Z,100529.53
2023-09-08T09:34:05.770Z,100529.75
2023-09-08T09:36:32.661Z,100530.88
2023-09-08T09:38:59.836Z,100538.59
2023-09-08T09:41:27.095Z,100542.19
2023-09-08T09:43:53.860Z,100546.00
2023-09-08T09:46:22.985Z,100553.97
2023-09-08T09:48:55.404Z,100548.53
2023-09-08T09:51:22.043Z,100543.22
2023-09-08T09:53:50.515Z,100538.03
2023-09-08T09:56:21.205Z,100547.41
2023-09-08T09:58:48.072Z,100555.84
2023-09-08T10:01:15.290Z,100559.59
2023-09-08T10:03:42.064Z,100554.34
2023-09-08T10:06:08.810Z,100548.25
2023-09-08T10:08:38.281Z,100549.19
2023-09-08T10:11:07.639Z,100549.69
2023-09-08T10:13:40.511Z,100550.56
2023-09-08T10:16:09.128Z,100554.91
2023-09-08T10:18:36.464Z,100552.78
2023-09-08T10:21:05.885Z,100554.13
2023-09-08T10:23:40.215Z,100556.19
2023-09-08T10:26:10.270Z,100554.00
2023-09-08T10:28:37.851Z,100549.13
2023-09-08T10:31:05.150Z,100560.81
2023-09-08T10:33:32.543Z,100565.38
2023-09-08T10:36:00.531Z,100564.69
2023-09-08T10:38:33.463Z,100562.97
2023-09-08T10:41:18.513Z,100563.59
2023-09-08T10:43:58.611Z,100556.09
2023-09-08T10:46:27.380Z,100559.22
2023-09-08T10:48:55.764Z,100557.03
2023-09-08T10:51:24.197Z,100551.53
2023-09-08T10:53:50.948Z,100551.09
2023-09-08T10:56:18.474Z,100557.03
2023-09-08T10:58:49.524Z,100554.19
2023-09-08T11:01:20.724Z,100556.38
2023-09-08T11:03:50.903Z,100552.47
2023-09-08T11:06:23.564Z,100552.59
2023-09-08T11:08:54.556Z,100552.28
2023-09-08T11:11:21.606Z,100546.28
2023-09-08T11:13:48.543Z,100547.00
2023-09-08T11:16:16.281Z,100544.44
2023-09-08T11:18:43.746Z,100551.78
2023-09-08T11:21:10.568Z,100550.34
2023-09-08T11:23:37.579Z,100542.38
2023-09-08T11:26:04.406Z,100554.22
2023-09-08T11:28:31.998Z,100551.94
2023-09-08T11:30:58.745Z,100549.81
2023-09-08T11:33:28.636Z,100551.44
2023-09-08T11:35:58.999Z,100549.25
2023-09-08T11:38:29.963Z,100546.31
2023-09-08T11:40:58.646Z,100543.00
2023-09-08T11:43:26.204Z,100543.53
2023-09-08T11:45:52.922Z,100535.22
2023-09-08T11:48:20.472Z,100531.72
2023-09-08T11:50:47.045Z,100539.38
2023-09-08T11:53:13.675Z,100529.09
2023-09-08T11:55:40.769Z,100524.00
2023-09-08T11:58:07.972Z,100527.97
2023-09-08T12:00:34.889Z,100525.69
2023-09-08T12:03:11.510Z,100518.44
2023-09-08T12:05:38.628Z,100517.47
2023-09-08T12:08:08.428Z,100524.81
2023-09-08T12:10:41.541Z,100513.28
2023-09-08T12:13:08.762Z,100525.91
2023-09-08T12:15:36.650Z,100520.09
2023-09-08T12:18:04.393Z,100521.84
2023-09-08T12:20:31.669Z,100522.28
2023-09-08T12:23:00.332Z,100524.47
2023-09-08T12:25:29.087Z,100519.84
2023-09-08T12:27:55.959Z,100519.66
2023-09-08T12:30:26.501Z,100521.06
2023-09-08T12:32:53.202Z,100525.94
2023-09-08T12:35:23.823Z,100524.59
2023-09-08T12:38:08.758Z,100528.63
2023-09-08T12:40:36.688Z,100528.81
2023-09-08T12:43:10.267Z,100527.56
2023-09-08T12:45:47.709Z,100535.78
2023-09-08T12:48:14.351Z,100532.56
2023-09-08T12:50:41.040Z,100527.16
2023-09-08T12:53:07.673Z,100528.97
2023-09-08T12:55:34.281Z,100524.56
2023-09-08T12:58:00.866Z,100516.59
2023-09-08T13:00:28.588Z,100519.94
2023-09-08T13:02:55.259Z,100523.72
2023-09-08T13:05:22.033Z,100517.25
2023-09-08T13:07:48.627Z,100512.94
2023-09-08T13:10:15.243Z,100514.69
2023-09-08T13:12:42.529Z,100517.38
2023-09-08T13:15:09.793Z,100509.44
2023-09-08T13:17:36.405Z,100518.34
2023-09-08T13:20:04.543Z,100514.13
2023-09-08T13:22:31.399Z,100505.53
2023-09-08T13:24:58.032Z,100502.00
2023-09-08T13:27:24.619Z,100504.75
2023-09-08T13:29:51.367Z,100499.78
2023-09-08T13:32:18.131Z,100508.63
2023-09-08T13:34:44.981Z,100500.19
2023-09-08T13:37:11.743Z,100497.34
2023-09-08T13:39:38.580Z,100496.78
2023-09-08T13:42:05.365Z,100489.84
2023-09-08T13:44:32.363Z,100493.53
2023-09-08T13:46:59.206Z,100489.16
2023-09-08T13:49:27.738Z,100492.03
2023-09-08T13:51:57.233Z,100491.84
2023-09-08T13:54:25.331Z,100485.59
2023-09-08T13:57:07.201Z,100486.22
2023-09-08T13:59:36.245Z,100487.47
2023-09-08T14:04:35.593Z,100485.16
2023-09-08T14:07:09.238Z,100479.78
2023-09-08T14:09:51.984Z,100485.06
2023-09-08T14:14:49.781Z,100474.59
2023-09-08T14:17:16.410Z,100470.44
2023-09-08T14:19:43.109Z,100465.66
2023-09-08T14:22:09.856Z,100469.63
2023-09-08T14:24:36.499Z,100470.84
2023-09-08T14:27:03.825Z,100471.56
2023-09-08T14:29:30.510Z,100462.28
2023-09-08T14:31:57.248Z,100463.94
2023-09-08T14:34:23.926Z,100468.78
2023-09-08T14:36:51.810Z,100460.25
2023-09-08T14:39:21.677Z,100458.94
2023-09-08T14:41:49.605Z,100450.28
2023-09-08T14:44:16.283Z,100458.31
2023-09-08T14:46:42.876Z,100453.47
2023-09-08T14:49:09.648Z,100451.00
2023-09-08T14:51:36.213Z,100446.34
2023-09-08T14:54:03.105Z,100446.59
2023-09-08T14:56:29.744Z,100442.56
2023-09-08T14:58:56.354Z,100441.59
2023-09-08T15:01:23.197Z,100438.59
2023-09-08T15:03:51.624Z,100439.56
2023-09-08T15:06:18.400Z,100425.13
2023-09-08T15:08:46.836Z,100429.69
2023-09-08T15:11:13.491Z,100434.59
2023-09-08T15:13:40.079Z,100426.09
2023-09-08T15:16:06.807Z,100426.84
2023-09-08T15:18:33.470Z,100427.38
2023-09-08T15:21:00.323Z,100425.38
2023-09-08T15:23:26.960Z,100424.31
2023-09-08T15:25:53.657Z,100430.38
2023-09-08T15:28:21.138Z,100426.09
2023-09-08T15:30:51.748Z,100427.69
2023-09-08T15:33:21.096Z,100426.34
2023-09-08T15:35:47.939Z,100429.53
2023-09-08T15:38:15.198Z,100429.38
2023-09-08T15:41:00.344Z,100435.25
2023-09-08T15:43:26.973Z,100426.56
2023-09-08T15:45:53.643Z,100424.44
2023-09-08T15:48:20.235Z,100424.44
2023-09-08T15:50:46.779Z,100416.16
2023-09-08T15:53:13.421Z,100410.69
2023-09-08T15:55:40.010Z,100413.78
2023-09-08T15:58:06.701Z,100412.81
2023-09-08T16:00:34.020Z,100409.72
2023-09-08T16:03:00.837Z,100410.09
2023-09-08T16:05:27.435Z,100407.34
2023-09-08T16:07:56.164Z,100403.63
2023-09-08T16:10:22.792Z,100413.88
2023-09-08T16:12:50.256Z,100399.94
2023-09-08T16:15:16.965Z,100401.44
2023-09-08T16:17:43.580Z,100400.84
2023-09-08T16:20:10.693Z,100396.56
2023-09-08T16:22:37.547Z,100407.25
2023-09-08T16:25:04.495Z,100389.31
2023-09-08T16:27:32.137Z,100393.72
2023-09-08T16:29:58.783Z,100388.16
2023-09-08T16:32:25.418Z,100389.00
2023-09-08T16:34:52.101Z,100385.91
2023-09-08T16:37:18.770Z,100387.56
2023-09-08T16:39:46.596Z,100391.13
2023-09-08T16:42:13.397Z,100388.03
2023-09-08T16:44:44.542Z,100383.03
2023-09-08T16:47:11.624Z,100378.56
2023-09-08T16:49:38.479Z,100385.53
2023-09-08T16:52:05.385Z,100381.28
2023-09-08T16:54:32.065Z,100373.91
2023-09-08T16:56:59.266Z,100378.16
2023-09-08T16:59:25.917Z,100375.31
2023-09-08T17:01:52.570Z,100368.31
2023-09-08T17:04:19.448Z,100370.81
2023-09-08T17:06:46.165Z,100363.44
2023-09-08T17:09:16.005Z,100359.38
2023-09-08T17:11:42.720Z,100345.88
2023-09-08T17:14:09.492Z,100345.75
2023-09-08T17:16:36.237Z,100348.94
2023-09-08T17:19:02.868Z,100351.91
2023-09-08T17:21:29.760Z,100349.03
2023-09-08T17:23:56.406Z,100351.31
2023-09-08T17:26:23.112Z,100353.31
2023-09-08T17:28:49.813Z,100352.97
2023-09-08T17:31:16.499Z,100347.69
2023-09-08T17:33:43.203Z,100357.19
2023-09-08T17:36:09.971Z,100350.41
2023-09-08T17:38:37.469Z,100356.56
2023-09-08T17:41:04.061Z,100346.81
2023-09-08T17:43:30.853Z,100350.59
2023-09-08T17:45:57.700Z,100349.31
2023-09-08T17:48:24.340Z,100350.16
2023-09-08T17:50:50.915Z,100347.44
2023-09-08T17:53:17.574Z,100349.63
2023-09-08T17:55:44.139Z,100348.34
2023-09-08T17:58:10.779Z,100357.09
2023-09-08T18:00:37.361Z,100355.34
2023-09-08T18:03:04.064Z,100349.72
2023-09-08T18:05:30.804Z,100351.03
2023-09-08T18:07:57.496Z,100348.34
2023-09-08T18:10:24.182Z,100339.19
2023-09-08T18:12:50.856Z,100344.84
2023-09-08T18:15:17.461Z,100340.78
2023-09-08T18:17:46.490Z,100340.44
2023-09-08T18:20:13.476Z,100338.81
2023-09-08T18:22:40.021Z,100335.22
2023-09-08T18:25:06.794Z,100342.09
2023-09-08T18:27:33.482Z,100342.03
2023-09-08T18:30:00.068Z,100344.38
2023-09-08T18:32:26.649Z,100345.53
2023-09-08T18:34:55.110Z,100344.44
2023-09-08T18:37:21.856Z,100334.16
2023-09-08T18:39:48.489Z,100329.25
2023-09-08T18:42:15.133Z,100331.78
2023-09-08T18:44:43.604Z,100332.72
2023-09-08T18:47:10.892Z,100327.31
2023-09-08T18:49:37.568Z,100323.59
2023-09-08T18:52:04.343Z,100323.63
2023-09-08T18:54:33.206Z,100317.38
2023-09-08T18:57:00.206Z,100317.16
2023-09-08T18:59:26.964Z,100307.13
2023-09-08T19:01:54.333Z,100311.13
2023-09-08T19:04:21.131Z,100300.47
2023-09-08T19:06:47.815Z,100303.19
2023-09-08T19:09:14.504Z,100308.88
2023-09-08T19:11:41.143Z,100313.28
2023-09-08T19:14:07.768Z,100309.72
2023-09-08T19:16:34.506Z,100307.94
2023-09-08T19:19:01.158Z,100305.03
2023-09-08T19:21:28.101Z,100301.94
2023-09-08T19:23:54.784Z,100289.19
2023-09-08T19:26:21.370Z,100295.88
2023-09-08T19:28:48.019Z,100286.00
2023-09-08T19:31:14.698Z,100289.56
2023-09-08T19:33:42.521Z,100287.47
2023-09-08T19:36:09.221Z,100286.66
2023-09-08T19:38:35.883Z,100278.53
2023-09-08T19:41:03.653Z,100278.97
2023-09-08T19:43:30.825Z,100276.31
2023-09-08T19:46:04.489Z,100272.34
2023-09-08T19:48:31.323Z,100256.66
2023-09-08T19:50:57.975Z,100252.09
2023-09-08T19:53:24.646Z,100251.50
2023-09-08T19:55:53.692Z,100246.91
2023-09-08T19:58:20.869Z,100239.16
2023-09-08T20:00:49.142Z,100230.88
2023-09-08T20:03:15.915Z,100224.41
2023-09-08T20:05:46.121Z,100222.97
2023-09-08T20:08:12.988Z,100208.75
2023-09-08T20:10:39.903Z,100198.75
2023-09-08T20:13:06.782Z,100204.63
2023-09-08T20:15:36.317Z,100202.53
2023-09-08T20:18:03.923Z,100201.72
2023-09-08T20:20:30.861Z,100213.84
2023-09-08T20:22:57.562Z,100198.22
2023-09-08T20:25:24.175Z,100182.56
2023-09-08T20:27:50.843Z,100168.00
2023-09-08T20:30:17.598Z,100156.75
2023-09-08T20:32:44.460Z,100145.72
2023-09-08T20:35:11.101Z,100137.81
2023-09-08T20:37:37.857Z,100126.56
2023-09-08T20:40:04.690Z,100120.69
2023-09-08T20:42:31.362Z,100115.53
2023-09-08T20:44:58.277Z,100113.25
2023-09-08T20:47:26.784Z,100112.22
2023-09-08T20:49:55.872Z,100109.25
2023-09-08T20:52:22.492Z,100099.06
2023-09-08T20:54:49.054Z,100096.34
2023-09-08T20:57:15.694Z,100091.34
2023-09-08T20:59:42.313Z,100089.50
2023-09-08T21:02:09.124Z,100092.78
2023-09-08T21:04:35.953Z,100100.09
2023-09-08T21:07:02.694Z,100108.22
2023-09-08T21:09:29.600Z,100108.00
2023-09-08T21:11:56.291Z,100106.75
2023-09-08T21:14:22.965Z,100102.81
2023-09-08T21:16:49.600Z,100098.66
2023-09-08T21:19:18.475Z,100101.97
2023-09-08T21:21:45.138Z,100101.75
2023-09-08T21:24:11.838Z,100100.09
2023-09-08T21:26:38.507Z,100096.53
2023-09-08T21:29:05.110Z,100098.22
2023-09-08T21:31:32.263Z,100091.97
2023-09-08T21:33:58.973Z,100088.00
2023-09-08T21:36:25.689Z,100089.47
2023-09-08T21:38:56.729Z,100088.84
2023-09-08T21:41:23.903Z,100086.53
2023-09-08T21:43:50.509Z,100083.00
2023-09-08T21:46:17.175Z,100083.44
2023-09-08T21:48:44.024Z,100088.22
2023-09-08T21:51:10.818Z,100099.03
2023-09-08T21:53:40.734Z,100098.97
2023-09-08T21:56:07.472Z,100094.19
2023-09-08T21:58:34.188Z,100097.31
2023-09-08T22:01:01.797Z,100103.56
2023-09-08T22:03:29.849Z,100106.22
2023-09-08T22:05:56.952Z,100118.31
2023-09-08T22:08:26.434Z,100120.03
2023-09-08T22:10:53.092Z,100131.03
2023-09-08T22:13:19.763Z,100139.31
2023-09-08T22:15:46.393Z,100146.19
2023-09-08T22:18:13.563Z,100144.38
2023-09-08T22:20:42.389Z,100154.50
2023-09-08T22:23:10.562Z,100160.59
2023-09-08T22:25:39.413Z,100164.13
2023-09-08T22:28:06.156Z,100164.16
2023-09-08T22:30:32.778Z,100167.28
2023-09-08T22:32:59.491Z,100157.28
2023-09-08T22:35:28.541Z,100155.22
2023-09-08T22:37:55.159Z,100144.59
2023-09-08T22:40:22.235Z,100139.19
2023-09-08T22:42:50.747Z,100134.84
2023-09-08T22:45:17.578Z,100127.16
2023-09-08T22:47:44.318Z,100125.69
2023-09-08T22:50:12.930Z,100117.59
2023-09-08T22:52:42.817Z,100114.88
2023-09-08T22:55:24.450Z,100115.69
2023-09-08T22:57:52.371Z,100114.84
2023-09-08T23:00:19.103Z,100106.13
2023-09-08T23:02:47.862Z,100109.03
2023-09-08T23:05:15.031Z,100097.59
2023-09-08T23:07:44.859Z,100103.19
2023-09-08T23:10:11.703Z,100110.06
2023-09-08T23:12:38.305Z,100105.06
2023-09-08T23:15:05.406Z,100105.44
2023-09-08T23:17:32.272Z,100096.03
2023-09-08T23:19:59.041Z,100094.59
2023-09-08T23:22:26.214Z,100094.38
2023-09-08T23:24:52.822Z,100079.97
2023-09-08T23:27:19.713Z,100072.13
2023-09-08T23:29:46.395Z,100081.72
2023-09-08T23:32:13.046Z,100085.44
2023-09-08T23:34:39.767Z,100084.34
2023-09-08T23:37:06.848Z,100076.44
2023-09-08T23:39:33.583Z,100069.63
2023-09-08T23:42:02.610Z,100057.34
2023-09-08T23:44:29.213Z,100063.16
2023-09-08T23:46:56.058Z,100061.72
2023-09-08T23:49:22.668Z,100053.97
2023-09-08T23:51:49.584Z,100055.69
2023-09-08T23:54:16.321Z,100053.84
2023-09-08T23:56:42.950Z,100050.50
2023-09-08T23:59:10.986Z,100043.22
